createdAt,value
2023-02-09T00:03:57.559Z,101922.31
2023-02-09T00:08:59.280Z,101899.25
2023-02-09T00:14:00.650Z,101924.38
2023-02-09T00:19:01.993Z,101903.41
2023-02-09T00:24:03.870Z,101919.03
2023-02-09T00:29:06.573Z,101906.91
2023-02-09T00:34:08.471Z,101898.44
2023-02-09T00:39:09.902Z,101889.91
2023-02-09T00:44:12.543Z,101898.59
2023-02-09T00:49:13.940Z,101893.19
2023-02-09T00:54:16.949Z,101903.78
2023-02-09T00:59:18.724Z,101884.78
2023-02-09T01:04:20.170Z,101872.84
2023-02-09T01:09:21.993Z,101882.66
2023-02-09T01:14:24.328Z,101878.22
2023-02-09T01:19:26.749Z,101872.22
2023-02-09T01:24:28.300Z,101849.75
2023-02-09T01:29:29.661Z,101863.72
2023-02-09T01:34:31.023Z,101870.44
2023-02-09T01:39:33.221Z,101861.72
2023-02-09T01:44:37.601Z,101848.78
2023-02-09T01:49:39.193Z,101852.44
2023-02-09T01:54:49.157Z,101847.28
2023-02-09T01:59:56.201Z,101838.63
2023-02-09T02:04:57.949Z,101805.56
2023-02-09T02:10:01.063Z,101814.44
2023-02-09T02:15:02.634Z,101802.38
2023-02-09T02:20:42.549Z,101813.56
2023-02-09T02:26:03.238Z,101800.53
2023-02-09T02:31:10.507Z,101803.03
2023-02-09T02:36:47.259Z,101803.09
2023-02-09T02:42:28.127Z,101793.69
2023-02-09T02:47:35.168Z,101781.53
2023-02-09T02:52:39.517Z,101794.75
2023-02-09T02:57:45.190Z,101792.13
2023-02-09T03:02:54.938Z,101778.94
2023-02-09T03:07:56.261Z,101770.50
2023-02-09T03:13:28.214Z,101793.09
2023-02-09T03:18:40.473Z,101795.56
2023-02-09T03:23:54.205Z,101797.44
2023-02-09T03:28:58.754Z,101799.88
2023-02-09T03:34:01.140Z,101802.59
2023-02-09T03:39:03.672Z,101807.78
2023-02-09T03:44:23.893Z,101809.44
2023-02-09T03:49:28.032Z,101808.97
2023-02-09T03:54:30.693Z,101795.94
2023-02-09T03:59:35.401Z,101772.59
2023-02-09T04:04:37.485Z,101802.97
2023-02-09T04:09:38.912Z,101797.66
2023-02-09T04:14:40.243Z,101783.81
2023-02-09T04:19:42.064Z,101808.91
2023-02-09T04:24:43.416Z,101790.78
2023-02-09T04:29:45.046Z,101789.91
2023-02-09T04:34:46.715Z,101797.69
2023-02-09T04:39:48.145Z,101797.78
2023-02-09T04:44:49.822Z,101801.44
2023-02-09T04:49:51.215Z,101777.25
2023-02-09T04:54:52.608Z,101796.22
2023-02-09T04:59:54.009Z,101798.13
2023-02-09T05:04:55.294Z,101792.91
2023-02-09T05:09:56.628Z,101784.38
2023-02-09T05:14:57.964Z,101804.38
2023-02-09T05:20:00.575Z,101796.63
2023-02-09T05:25:01.925Z,101801.03
2023-02-09T05:30:04.038Z,101803.63
2023-02-09T05:35:08.445Z,101812.34
2023-02-09T05:40:10.316Z,101796.78
2023-02-09T05:45:11.640Z,101791.53
2023-02-09T05:50:13.167Z,101796.75
2023-02-09T05:55:14.528Z,101810.75
2023-02-09T06:00:16.278Z,101787.31
2023-02-09T06:05:17.782Z,101793.31
2023-02-09T06:10:19.280Z,101801.28
2023-02-09T06:15:21.058Z,101808.28
2023-02-09T06:20:22.637Z,101807.47
2023-02-09T06:25:24.019Z,101822.16
2023-02-09T06:30:25.438Z,101829.22
2023-02-09T06:35:26.899Z,101804.91
2023-02-09T06:40:28.597Z,101827.50
2023-02-09T06:45:30.266Z,101830.16
2023-02-09T06:50:31.643Z,101831.00
2023-02-09T06:55:34.239Z,101822.34
2023-02-09T07:00:35.706Z,101814.34
2023-02-09T07:05:37.070Z,101828.81
2023-02-09T07:10:40.536Z,101814.97
2023-02-09T07:15:42.032Z,101834.88
2023-02-09T07:20:43.692Z,101840.97
2023-02-09T07:25:45.161Z,101847.97
2023-02-09T07:30:52.084Z,101847.03
2023-02-09T07:35:53.600Z,101851.91
2023-02-09T07:40:55.216Z,101861.53
2023-02-09T07:46:01.514Z,101846.88
2023-02-09T07:51:03.922Z,101850.25
2023-02-09T07:56:06.012Z,101863.91
2023-02-09T08:01:10.530Z,101866.50
2023-02-09T08:06:41.476Z,101870.88
2023-02-09T08:11:52.588Z,101883.91
2023-02-09T08:17:17.250Z,101875.88
2023-02-09T08:22:19.203Z,101881.81
2023-02-09T08:27:20.676Z,101821.72
2023-02-09T08:32:22.094Z,101888.41
2023-02-09T08:37:23.431Z,101878.91
2023-02-09T08:42:24.953Z,101865.91
2023-02-09T08:47:26.636Z,101847.84
2023-02-09T08:52:28.005Z,101881.75
2023-02-09T08:57:43.125Z,101877.16
2023-02-09T09:02:45.477Z,101883.97
2023-02-09T09:07:46.906Z,101883.84
2023-02-09T09:12:48.391Z,101887.91
2023-02-09T09:17:49.817Z,101857.91
2023-02-09T09:22:51.244Z,101857.44
2023-02-09T09:27:52.723Z,101869.88
2023-02-09T09:32:55.157Z,101859.31
2023-02-09T09:37:58.428Z,101855.81
2023-02-09T09:43:08.659Z,101851.59
2023-02-09T09:48:28.232Z,101848.03
2023-02-09T09:53:35.380Z,101844.97
2023-02-09T09:58:41.584Z,101837.38
2023-02-09T10:03:43.840Z,101851.94
2023-02-09T10:08:59.555Z,101849.81
2023-02-09T10:14:01.398Z,101854.25
2023-02-09T10:19:05.646Z,101852.88
2023-02-09T10:24:23.741Z,101846.13
2023-02-09T10:29:25.971Z,101863.00
2023-02-09T10:34:40.973Z,101848.88
2023-02-09T10:39:42.420Z,101843.97
2023-02-09T10:44:50.983Z,101841.66
2023-02-09T10:49:55.556Z,101823.38
2023-02-09T10:55:02.410Z,101832.81
2023-02-09T11:00:15.806Z,101836.09
2023-02-09T11:05:20.433Z,101826.44
2023-02-09T11:10:22.463Z,101821.97
2023-02-09T11:15:27.599Z,101823.03
2023-02-09T11:20:35.453Z,101817.94
2023-02-09T11:25:48.607Z,101809.34
2023-02-09T11:31:40.429Z,101803.91
2023-02-09T11:37:04.365Z,101811.66
2023-02-09T11:42:31.872Z,101808.59
2023-02-09T11:47:40.284Z,101800.59
2023-02-09T11:52:51.585Z,101786.53
2023-02-09T11:58:02.965Z,101786.84
2023-02-09T12:03:11.948Z,101771.06
2023-02-09T12:08:32.058Z,101788.41
2023-02-09T12:13:39.191Z,101792.28
2023-02-09T12:18:43.210Z,101766.03
2023-02-09T12:23:45.046Z,101771.72
2023-02-09T12:29:03.534Z,101769.97
2023-02-09T12:34:14.502Z,101762.41
2023-02-09T12:39:24.079Z,101767.66
2023-02-09T12:44:25.542Z,101756.09
2023-02-09T12:49:26.886Z,101767.84
2023-02-09T12:54:29.180Z,101776.16
2023-02-09T12:59:30.470Z,101778.19
2023-02-09T13:04:38.196Z,101774.28
2023-02-09T13:09:41.184Z,101772.81
2023-02-09T13:14:47.222Z,101756.22
2023-02-09T13:19:54.646Z,101765.03
2023-02-09T13:25:01.824Z,101764.78
2023-02-09T13:30:03.266Z,101762.44
2023-02-09T13:35:20.209Z,101767.50
2023-02-09T13:40:30.229Z,101774.50
2023-02-09T13:45:31.852Z,101770.44
2023-02-09T13:50:33.376Z,101752.00
2023-02-09T13:55:37.755Z,101728.97
2023-02-09T14:00:49.892Z,101743.31
2023-02-09T14:06:18.152Z,101751.06
2023-02-09T14:11:42.985Z,101758.13
2023-02-09T14:16:52.909Z,101752.56
2023-02-09T14:21:55.119Z,101740.41
2023-02-09T14:27:03.714Z,101735.63
2023-02-09T14:32:33.494Z,101746.09
2023-02-09T14:37:36.877Z,101750.63
2023-02-09T14:42:56.979Z,101751.41
2023-02-09T14:47:58.578Z,101741.72
2023-02-09T14:53:08.102Z,101744.81
2023-02-09T14:58:30.880Z,101721.28
2023-02-09T15:03:32.278Z,101741.47
2023-02-09T15:08:37.446Z,101734.53
2023-02-09T15:13:39.065Z,101737.31
2023-02-09T15:18:40.528Z,101731.75
2023-02-09T15:23:42.694Z,101745.91
2023-02-09T15:28:44.039Z,101771.97
2023-02-09T15:33:45.322Z,101765.13
2023-02-09T15:38:47.288Z,101741.06
2023-02-09T15:44:07.268Z,101776.72
2023-02-09T15:49:08.910Z,101781.44
2023-02-09T15:54:22.136Z,101783.56
2023-02-09T15:59:23.853Z,101770.53
2023-02-09T16:04:25.279Z,101783.03
2023-02-09T16:09:28.719Z,101772.84
2023-02-09T16:14:31.527Z,101781.66
2023-02-09T16:19:32.939Z,101795.03
2023-02-09T16:24:43.897Z,101782.56
2023-02-09T16:29:45.220Z,101793.41
2023-02-09T16:34:46.573Z,101799.09
2023-02-09T16:39:47.940Z,101803.97
2023-02-09T16:44:49.297Z,101811.56
2023-02-09T16:50:02.841Z,101819.81
2023-02-09T16:55:06.951Z,101812.66
2023-02-09T17:00:09.196Z,101844.31
2023-02-09T17:05:31.543Z,101838.25
2023-02-09T17:10:34.919Z,101833.19
2023-02-09T17:15:42.304Z,101853.94
2023-02-09T17:20:47.765Z,101856.31
2023-02-09T17:25:50.889Z,101858.72
2023-02-09T17:30:56.330Z,101854.44
2023-02-09T17:36:24.790Z,101865.41
2023-02-09T17:41:22.989Z,101867.44
2023-02-09T17:46:24.337Z,101872.84
2023-02-09T17:51:34.608Z,101876.91
2023-02-09T17:56:36.144Z,101884.16
2023-02-09T18:01:42.284Z,101881.97
2023-02-09T18:06:43.690Z,101890.50
2023-02-09T18:11:45.008Z,101890.59
2023-02-09T18:16:47.680Z,101891.50
2023-02-09T18:21:58.288Z,101888.09
2023-02-09T18:27:00.302Z,101904.94
2023-02-09T18:32:02.592Z,101898.00
2023-02-09T18:37:04.113Z,101899.75
2023-02-09T18:42:05.566Z,101901.75
2023-02-09T18:47:07.348Z,101918.50
2023-02-09T18:52:10.142Z,101933.31
2023-02-09T18:57:13.070Z,101937.28
2023-02-09T19:02:14.996Z,101928.13
2023-02-09T19:07:16.947Z,101919.38
2023-02-09T19:12:18.494Z,101925.44
2023-02-09T19:17:21.476Z,101949.03
2023-02-09T19:22:22.910Z,101952.47
2023-02-09T19:27:26.749Z,101953.88
2023-02-09T19:32:29.119Z,101946.09
2023-02-09T19:37:30.843Z,101947.13
2023-02-09T19:42:32.984Z,101946.63
2023-02-09T19:47:34.407Z,101944.81
2023-02-09T19:52:38.160Z,101970.19
2023-02-09T19:57:39.599Z,101967.97
2023-02-09T20:02:40.969Z,101989.88
2023-02-09T20:07:43.319Z,101992.03
2023-02-09T20:22:53.337Z,101994.28
2023-02-09T20:27:55.534Z,102006.38
2023-02-09T20:32:57.058Z,101997.03
2023-02-09T20:37:58.498Z,101980.41
2023-02-09T20:43:18.825Z,101997.16
2023-02-09T20:48:20.181Z,101966.09
2023-02-09T20:53:22.408Z,101998.06
2023-02-09T20:58:24.710Z,102004.84
2023-02-09T21:03:26.031Z,102008.75
2023-02-09T21:08:27.370Z,101997.69
2023-02-09T21:13:29.634Z,101979.41
2023-02-09T21:18:30.969Z,102005.28
2023-02-09T21:23:32.583Z,102007.19
2023-02-09T21:28:35.596Z,102007.56
2023-02-09T21:33:37.167Z,101999.81
2023-02-09T21:38:41.445Z,102002.66
2023-02-09T21:43:43.145Z,101983.78
2023-02-09T21:48:44.784Z,101987.28
2023-02-09T21:53:46.497Z,102009.03
2023-02-09T21:58:48.027Z,101983.09
2023-02-09T22:03:57.410Z,102005.84
2023-02-09T22:09:02.457Z,101988.44
2023-02-09T22:14:04.269Z,101991.16
2023-02-09T22:19:05.696Z,101993.06
2023-02-09T22:24:07.424Z,102003.63
2023-02-09T22:29:10.182Z,102000.97
2023-02-09T22:34:11.998Z,102006.00
2023-02-09T22:39:14.477Z,102011.91
2023-02-09T22:44:17.481Z,102015.75
2023-02-09T22:49:20.913Z,102019.50
2023-02-09T22:54:22.392Z,102032.63
2023-02-09T22:59:23.710Z,102025.56
2023-02-09T23:04:25.069Z,102022.09
2023-02-09T23:09:26.615Z,101989.94
2023-02-09T23:14:28.254Z,102003.19
2023-02-09T23:19:29.555Z,102013.75
2023-02-09T23:24:30.931Z,102004.88
2023-02-09T23:29:32.537Z,102018.94
2023-02-09T23:34:33.893Z,102019.94
2023-02-09T23:39:37.077Z,102037.47
2023-02-09T23:44:38.603Z,102046.22
2023-02-09T23:49:40.018Z,102025.44
2023-02-09T23:54:41.430Z,102054.94
2023-02-09T23:59:42.757Z,102067.13
